Time;durP1;ratioP1;P1;durP2;ratioP2;P2;SDS_P1;SDS_P2;PMS_P1;PMS_P2;Temp;Humidity;BMP_temperature;BMP_pressure;BME280_temperature;BME280_humidity;BME280_pressure;Samples;Min_cycle;Max_cycle;Signal;HPM_P1;HPM_P2
2020/12/21 00:01:19;;;;;;;15.77;14.07;;;;;;;;;;5002300;28;20677;-56
2020/12/21 00:03:44;;;;;;;18.17;15.53;;;;;;;;;;5006674;28;20178;-58
2020/12/21 00:06:10;;;;;;;14.63;13.13;;;;;;;;;;5022562;28;20956;-58
2020/12/21 00:08:36;;;;;;;17.00;14.60;;;;;;;;;;5014947;28;20191;-58
2020/12/21 00:11:01;;;;;;;15.53;13.93;;;;;;;;;;5005124;28;20622;-58
2020/12/21 00:13:28;;;;;;;17.48;15.23;;;;;;;;;;5017045;28;20540;-58
2020/12/21 00:15:53;;;;;;;17.20;14.80;;;;;;;;;;5011230;28;20259;-58
2020/12/21 00:18:18;;;;;;;17.00;14.57;;;;;;;;;;5010257;28;21193;-58
2020/12/21 00:20:43;;;;;;;16.23;14.52;;;;;;;;;;5012066;28;20673;-59
2020/12/21 00:23:08;;;;;;;16.73;14.93;;;;;;;;;;5003731;28;20175;-58
2020/12/21 00:25:33;;;;;;;15.20;13.60;;;;;;;;;;5014063;28;20188;-58
2020/12/21 00:27:58;;;;;;;15.50;13.52;;;;;;;;;;5005576;28;20265;-57
2020/12/21 00:30:24;;;;;;;16.03;14.30;;;;;;;;;;5020128;28;20658;-57
2020/12/21 00:32:49;;;;;;;17.17;14.30;;;;;;;;;;5015659;28;20263;-58
2020/12/21 00:35:14;;;;;;;14.95;13.35;;;;;;;;;;5016284;28;20223;-58
2020/12/21 00:37:39;;;;;;;16.83;14.32;;;;;;;;;;5015156;28;20306;-58
2020/12/21 00:40:04;;;;;;;17.80;14.75;;;;;;;;;;5018902;28;20231;-58
2020/12/21 00:42:29;;;;;;;16.30;12.97;;;;;;;;;;5012607;28;20286;-58
2020/12/21 00:44:54;;;;;;;17.10;14.25;;;;;;;;;;5020486;28;20189;-58
2020/12/21 00:47:20;;;;;;;18.13;15.27;;;;;;;;;;5014593;28;20176;-58
2020/12/21 00:49:45;;;;;;;19.20;15.85;;;;;;;;;;5010664;28;20177;-58
2020/12/21 00:52:10;;;;;;;16.63;14.63;;;;;;;;;;5021191;28;20185;-59
2020/12/21 00:54:35;;;;;;;16.90;14.00;;;;;;;;;;5006053;28;20201;-58
2020/12/21 00:57:00;;;;;;;16.43;14.70;;;;;;;;;;5012079;28;20245;-58
2020/12/21 00:59:25;;;;;;;15.70;14.00;;;;;;;;;;5017401;28;20529;-58
2020/12/21 01:01:50;;;;;;;17.00;14.70;;;;;;;;;;5011151;28;20659;-58
2020/12/21 01:04:16;;;;;;;20.20;15.60;;;;;;;;;;5015122;28;20169;-58
2020/12/21 01:06:41;;;;;;;18.97;16.10;;;;;;;;;;5011219;28;20209;-58
2020/12/21 01:09:10;;;;;;;16.90;13.73;;;;;;;;;;5017584;28;20173;-59
2020/12/21 01:11:35;;;;;;;16.87;14.67;;;;;;;;;;5018642;28;20685;-58
2020/12/21 01:14:00;;;;;;;18.40;14.73;;;;;;;;;;5007104;28;20611;-58
2020/12/21 01:16:25;;;;;;;18.13;15.63;;;;;;;;;;5015387;28;20697;-58
2020/12/21 01:18:51;;;;;;;19.70;15.67;;;;;;;;;;5001088;28;20202;-58
2020/12/21 01:21:29;;;;;;;16.97;14.50;;;;;;;;;;5013333;28;20187;-59
2020/12/21 01:23:58;;;;;;;21.23;15.90;;;;;;;;;;5005380;28;20200;-58
2020/12/21 01:26:23;;;;;;;19.83;16.27;;;;;;;;;;5021553;28;20658;-59
2020/12/21 01:28:49;;;;;;;20.80;16.70;;;;;;;;;;5014074;28;20604;-58
2020/12/21 01:31:15;;;;;;;19.83;16.07;;;;;;;;;;5002187;28;20719;-58
2020/12/21 01:33:40;;;;;;;21.57;17.13;;;;;;;;;;5008175;28;20170;-58
2020/12/21 01:36:05;;;;;;;17.87;15.27;;;;;;;;;;5006295;28;21004;-58
2020/12/21 01:38:31;;;;;;;21.85;16.27;;;;;;;;;;5009981;28;20646;-58
2020/12/21 01:40:56;;;;;;;21.20;15.83;;;;;;;;;;5014404;28;20184;-58
2020/12/21 01:43:21;;;;;;;21.70;17.35;;;;;;;;;;5017228;28;20174;-58
2020/12/21 01:45:46;;;;;;;21.50;16.80;;;;;;;;;;5010986;28;20281;-58
2020/12/21 01:48:11;;;;;;;21.45;16.20;;;;;;;;;;5007388;28;20180;-59
2020/12/21 01:50:37;;;;;;;19.70;16.03;;;;;;;;;;5021286;28;20650;-59
2020/12/21 01:53:02;;;;;;;20.93;17.17;;;;;;;;;;5013772;28;20192;-58
2020/12/21 01:55:29;;;;;;;20.07;16.07;;;;;;;;;;5016310;28;20616;-58
2020/12/21 01:57:55;;;;;;;21.90;17.57;;;;;;;;;;5016641;28;20635;-58
2020/12/21 02:00:20;;;;;;;20.53;15.80;;;;;;;;;;4998528;28;20601;-60
2020/12/21 02:02:45;;;;;;;22.63;18.50;;;;;;;;;;5011283;28;20197;-58
2020/12/21 02:05:11;;;;;;;21.73;17.10;;;;;;;;;;5016624;28;20193;-59
2020/12/21 02:07:36;;;;;;;21.40;17.10;;;;;;;;;;5012896;28;20191;-59
2020/12/21 02:10:02;;;;;;;20.90;16.50;;;;;;;;;;5017425;28;20234;-59
2020/12/21 02:12:27;;;;;;;22.27;16.80;;;;;;;;;;5009533;28;20181;-58
2020/12/21 02:14:52;;;;;;;22.17;17.15;;;;;;;;;;5019304;28;20216;-58
2020/12/21 02:17:18;;;;;;;22.08;16.83;;;;;;;;;;5020449;28;20203;-58
2020/12/21 02:19:43;;;;;;;21.90;17.53;;;;;;;;;;5015343;28;20219;-59
2020/12/21 02:22:11;;;;;;;21.10;16.08;;;;;;;;;;5009025;28;20618;-58
2020/12/21 02:24:36;;;;;;;22.53;17.73;;;;;;;;;;5000450;28;20607;-59
2020/12/21 02:27:02;;;;;;;21.77;17.70;;;;;;;;;;5017338;28;20644;-58
2020/12/21 02:29:27;;;;;;;24.67;18.45;;;;;;;;;;5015598;28;20204;-59
2020/12/21 02:31:52;;;;;;;22.83;17.75;;;;;;;;;;5019143;28;20172;-58
2020/12/21 02:34:18;;;;;;;24.97;18.23;;;;;;;;;;5013751;28;20167;-58
2020/12/21 02:36:43;;;;;;;23.10;18.67;;;;;;;;;;5013788;28;20867;-58
2020/12/21 02:39:08;;;;;;;22.17;17.47;;;;;;;;;;5009225;28;20537;-59
2020/12/21 02:41:34;;;;;;;23.97;17.17;;;;;;;;;;5017707;28;20182;-58
2020/12/21 02:43:59;;;;;;;23.90;18.10;;;;;;;;;;5006397;28;20267;-59
2020/12/21 02:46:24;;;;;;;25.48;18.50;;;;;;;;;;5005997;28;20192;-58
2020/12/21 02:48:49;;;;;;;21.88;16.80;;;;;;;;;;5017238;28;20534;-59
2020/12/21 02:51:14;;;;;;;24.40;17.95;;;;;;;;;;5016153;28;20207;-59
2020/12/21 02:53:40;;;;;;;24.47;19.07;;;;;;;;;;5015564;28;20176;-59
2020/12/21 02:56:05;;;;;;;24.35;17.80;;;;;;;;;;5012523;28;20580;-58
2020/12/21 02:58:30;;;;;;;21.17;17.33;;;;;;;;;;5014049;28;20226;-58
2020/12/21 03:00:55;;;;;;;24.73;18.60;;;;;;;;;;5008835;28;20184;-59
2020/12/21 03:03:20;;;;;;;21.98;16.20;;;;;;;;;;5016171;28;20173;-58
2020/12/21 03:05:46;;;;;;;23.30;17.25;;;;;;;;;;5000361;28;20173;-58
2020/12/21 03:08:11;;;;;;;22.83;16.97;;;;;;;;;;5017299;28;20636;-59
2020/12/21 03:10:37;;;;;;;22.73;17.93;;;;;;;;;;5009623;28;20256;-58
2020/12/21 03:13:03;;;;;;;21.77;17.30;;;;;;;;;;5010826;28;20191;-58
2020/12/21 03:15:28;;;;;;;19.50;16.20;;;;;;;;;;5011601;28;20423;-59
2020/12/21 03:17:53;;;;;;;22.70;16.23;;;;;;;;;;5010862;28;20180;-58
2020/12/21 03:20:18;;;;;;;21.03;16.17;;;;;;;;;;5019342;28;20319;-58
2020/12/21 03:22:47;;;;;;;21.70;16.70;;;;;;;;;;5012239;28;20179;-59
2020/12/21 03:25:12;;;;;;;21.37;17.10;;;;;;;;;;5016393;28;20280;-58
2020/12/21 03:27:37;;;;;;;21.05;17.15;;;;;;;;;;5014490;28;20733;-58
2020/12/21 03:30:03;;;;;;;26.63;18.80;;;;;;;;;;5007750;28;20178;-58
2020/12/21 03:32:28;;;;;;;21.03;16.20;;;;;;;;;;5016645;28;20671;-58
2020/12/21 03:34:53;;;;;;;22.92;17.08;;;;;;;;;;5013832;28;20639;-59
2020/12/21 03:37:18;;;;;;;22.48;16.25;;;;;;;;;;5013524;28;20177;-59
2020/12/21 03:39:44;;;;;;;19.97;16.37;;;;;;;;;;5011650;28;20231;-59
2020/12/21 03:42:09;;;;;;;19.33;15.90;;;;;;;;;;5016351;28;20178;-58
2020/12/21 03:44:34;;;;;;;22.37;15.80;;;;;;;;;;5014763;28;20178;-58
2020/12/21 03:46:59;;;;;;;18.80;14.55;;;;;;;;;;5015594;28;20177;-58
2020/12/21 03:49:24;;;;;;;20.45;16.13;;;;;;;;;;5018628;28;20210;-59
2020/12/21 03:51:49;;;;;;;18.57;16.10;;;;;;;;;;5005713;28;20203;-59
2020/12/21 03:54:15;;;;;;;20.33;15.55;;;;;;;;;;5022664;28;20171;-59
2020/12/21 03:56:41;;;;;;;23.10;16.10;;;;;;;;;;5013714;28;20351;-58
2020/12/21 03:59:06;;;;;;;19.03;15.33;;;;;;;;;;5013744;28;20174;-58
2020/12/21 04:01:31;;;;;;;21.03;15.60;;;;;;;;;;5019165;28;20598;-58
2020/12/21 04:03:56;;;;;;;17.42;14.77;;;;;;;;;;5016994;28;20185;-58
2020/12/21 04:06:22;;;;;;;21.20;16.37;;;;;;;;;;5010101;28;20318;-58
2020/12/21 04:08:47;;;;;;;21.33;14.27;;;;;;;;;;5016807;28;20180;-58
2020/12/21 04:11:12;;;;;;;19.00;14.93;;;;;;;;;;5020994;28;20191;-57
2020/12/21 04:13:37;;;;;;;19.40;15.97;;;;;;;;;;5017275;28;20215;-58
2020/12/21 04:16:03;;;;;;;20.53;16.53;;;;;;;;;;5016298;28;20213;-58
2020/12/21 04:18:28;;;;;;;18.10;13.77;;;;;;;;;;5021130;28;20180;-58
2020/12/21 04:20:53;;;;;;;21.83;15.73;;;;;;;;;;5016047;28;20224;-59
2020/12/21 04:23:18;;;;;;;19.03;14.50;;;;;;;;;;5018784;28;20165;-58
2020/12/21 04:25:43;;;;;;;18.95;14.82;;;;;;;;;;5019233;28;20713;-57
2020/12/21 04:28:08;;;;;;;18.65;15.27;;;;;;;;;;5019764;28;20639;-58
2020/12/21 04:30:34;;;;;;;20.13;15.50;;;;;;;;;;5019311;28;20191;-58
2020/12/21 04:32:59;;;;;;;19.20;14.23;;;;;;;;;;5017888;28;20203;-58
2020/12/21 04:35:24;;;;;;;19.47;15.40;;;;;;;;;;5016970;28;20192;-58
2020/12/21 04:37:50;;;;;;;19.15;15.25;;;;;;;;;;5008935;28;20565;-56
2020/12/21 04:40:15;;;;;;;21.57;15.70;;;;;;;;;;5015763;28;20192;-58
2020/12/21 04:42:47;;;;;;;17.87;14.30;;;;;;;;;;5019770;28;21025;-59
2020/12/21 04:45:13;;;;;;;19.80;15.33;;;;;;;;;;5004992;28;20176;-58
2020/12/21 04:47:38;;;;;;;20.60;15.73;;;;;;;;;;5010610;28;20758;-59
2020/12/21 04:50:03;;;;;;;19.60;15.07;;;;;;;;;;5022014;28;20639;-59
2020/12/21 04:52:29;;;;;;;17.48;14.10;;;;;;;;;;5019447;28;20188;-57
2020/12/21 04:54:55;;;;;;;19.90;15.90;;;;;;;;;;5025437;28;20509;-57
2020/12/21 04:57:20;;;;;;;19.50;14.53;;;;;;;;;;5012767;28;20176;-59
2020/12/21 04:59:45;;;;;;;19.67;14.88;;;;;;;;;;5019735;28;20614;-59
2020/12/21 05:02:10;;;;;;;19.23;14.93;;;;;;;;;;5011860;28;20188;-59
2020/12/21 05:04:36;;;;;;;19.20;15.52;;;;;;;;;;5012933;28;20191;-59
2020/12/21 05:07:01;;;;;;;20.15;15.00;;;;;;;;;;5020852;28;20655;-59
2020/12/21 05:09:26;;;;;;;19.33;15.48;;;;;;;;;;5006020;28;20169;-59
2020/12/21 05:11:55;;;;;;;21.13;16.57;;;;;;;;;;5012277;28;20299;-58
2020/12/21 05:14:28;;;;;;;17.17;14.00;;;;;;;;;;5004879;28;20177;-59
2020/12/21 05:16:53;;;;;;;19.70;15.37;;;;;;;;;;5020761;28;20620;-59
2020/12/21 05:19:22;;;;;;;21.10;15.77;;;;;;;;;;5017199;28;20609;-59
2020/12/21 05:21:52;;;;;;;19.97;15.20;;;;;;;;;;5016622;28;20690;-59
2020/12/21 05:24:20;;;;;;;18.50;14.63;;;;;;;;;;5013910;28;20631;-59
2020/12/21 05:26:45;;;;;;;17.90;13.77;;;;;;;;;;5012901;28;20651;-59
2020/12/21 05:29:10;;;;;;;18.58;14.32;;;;;;;;;;5008315;28;20741;-59
2020/12/21 05:31:35;;;;;;;19.63;14.98;;;;;;;;;;5020479;28;20225;-56
2020/12/21 05:34:00;;;;;;;18.52;14.43;;;;;;;;;;5015548;28;20184;-57
2020/12/21 05:36:26;;;;;;;17.97;15.37;;;;;;;;;;5016085;28;20674;-57
2020/12/21 05:39:05;;;;;;;20.13;14.68;;;;;;;;;;4998147;28;20192;-57
2020/12/21 05:41:30;;;;;;;21.70;15.83;;;;;;;;;;5020021;28;20179;-57
2020/12/21 05:44:02;;;;;;;19.43;14.90;;;;;;;;;;5018601;28;20610;-57
2020/12/21 05:46:28;;;;;;;19.43;14.90;;;;;;;;;;5005917;28;20263;-57
2020/12/21 05:48:55;;;;;;;22.00;16.87;;;;;;;;;;5005475;28;20669;-57
2020/12/21 05:51:21;;;;;;;18.80;14.70;;;;;;;;;;5006085;28;21002;-57
2020/12/21 05:53:46;;;;;;;24.40;17.60;;;;;;;;;;5016168;28;20606;-57
2020/12/21 05:56:11;;;;;;;20.63;16.27;;;;;;;;;;5012287;28;20642;-57
2020/12/21 05:58:38;;;;;;;22.70;16.67;;;;;;;;;;5009840;28;20188;-57
2020/12/21 06:01:04;;;;;;;18.90;15.10;;;;;;;;;;5001747;28;20169;-57
2020/12/21 06:03:37;;;;;;;21.43;16.43;;;;;;;;;;5008826;28;20609;-57
2020/12/21 06:06:06;;;;;;;24.50;16.40;;;;;;;;;;5021889;28;20703;-56
2020/12/21 06:08:33;;;;;;;20.87;15.70;;;;;;;;;;5021160;28;20605;-59
2020/12/21 06:11:03;;;;;;;25.53;16.70;;;;;;;;;;5018774;28;20615;-58
2020/12/21 06:13:29;;;;;;;22.47;15.10;;;;;;;;;;5002235;28;20611;-57
2020/12/21 06:15:56;;;;;;;20.43;15.10;;;;;;;;;;5018528;28;20643;-58
2020/12/21 06:18:21;;;;;;;21.63;16.33;;;;;;;;;;5020028;28;20177;-59
2020/12/21 06:20:46;;;;;;;19.10;15.07;;;;;;;;;;5017245;28;20680;-58
2020/12/21 06:23:11;;;;;;;24.10;15.93;;;;;;;;;;5014646;28;20310;-59
2020/12/21 06:25:37;;;;;;;20.30;15.88;;;;;;;;;;5019286;28;20222;-56
2020/12/21 06:28:08;;;;;;;20.50;15.33;;;;;;;;;;5018322;28;20277;-57
2020/12/21 06:30:33;;;;;;;20.60;15.27;;;;;;;;;;5012558;28;20181;-57
2020/12/21 06:33:02;;;;;;;19.70;15.87;;;;;;;;;;5018943;28;21223;-57
2020/12/21 06:35:27;;;;;;;22.90;17.23;;;;;;;;;;5018839;28;20203;-57
2020/12/21 06:37:59;;;;;;;21.20;16.27;;;;;;;;;;5004262;28;20703;-57
2020/12/21 06:40:31;;;;;;;25.00;17.13;;;;;;;;;;5009783;28;20690;-57
2020/12/21 06:43:06;;;;;;;23.50;17.60;;;;;;;;;;5003373;28;20608;-57
2020/12/21 06:45:34;;;;;;;24.80;16.93;;;;;;;;;;5009443;28;20671;-57
2020/12/21 06:48:00;;;;;;;22.30;16.97;;;;;;;;;;4996209;28;20635;-58
2020/12/21 06:50:25;;;;;;;23.60;17.07;;;;;;;;;;4989509;28;20658;-58
2020/12/21 06:52:50;;;;;;;21.53;15.83;;;;;;;;;;5006392;28;20172;-57
2020/12/21 06:55:15;;;;;;;21.33;15.63;;;;;;;;;;5004407;28;20210;-57
2020/12/21 06:57:40;;;;;;;21.50;15.97;;;;;;;;;;5009277;28;20651;-58
2020/12/21 07:00:05;;;;;;;21.90;16.30;;;;;;;;;;5009866;28;20258;-57
2020/12/21 07:02:31;;;;;;;20.20;15.48;;;;;;;;;;5004337;28;20929;-57
2020/12/21 07:05:07;;;;;;;20.57;14.77;;;;;;;;;;5005334;28;20243;-57
2020/12/21 07:07:32;;;;;;;23.50;16.30;;;;;;;;;;5011298;28;20642;-58
2020/12/21 07:09:58;;;;;;;24.02;16.30;;;;;;;;;;4997282;28;20990;-57
2020/12/21 07:12:24;;;;;;;19.70;14.60;;;;;;;;;;5011121;28;20181;-58
2020/12/21 07:14:49;;;;;;;21.27;15.67;;;;;;;;;;5008817;28;21018;-58
2020/12/21 07:17:17;;;;;;;21.53;15.33;;;;;;;;;;4999823;28;20202;-58
2020/12/21 07:19:43;;;;;;;20.40;16.20;;;;;;;;;;5008459;28;20592;-58
2020/12/21 07:22:08;;;;;;;21.47;16.10;;;;;;;;;;5001977;28;20616;-58
2020/12/21 07:24:34;;;;;;;23.40;17.03;;;;;;;;;;4995140;28;20222;-59
2020/12/21 07:26:59;;;;;;;21.37;15.77;;;;;;;;;;5000151;28;20239;-59
2020/12/21 07:29:34;;;;;;;20.77;15.37;;;;;;;;;;5016285;28;20219;-59
2020/12/21 07:31:59;;;;;;;21.43;16.00;;;;;;;;;;5020539;28;20177;-59
2020/12/21 07:34:24;;;;;;;20.30;16.23;;;;;;;;;;5015322;28;20592;-57
2020/12/21 07:36:50;;;;;;;20.70;15.63;;;;;;;;;;5009662;28;20686;-57
2020/12/21 07:39:17;;;;;;;20.70;16.10;;;;;;;;;;5006599;28;20645;-58
2020/12/21 07:41:46;;;;;;;21.80;16.20;;;;;;;;;;5003914;28;20254;-57
2020/12/21 07:44:12;;;;;;;23.50;17.37;;;;;;;;;;5014446;28;20700;-58
2020/12/21 07:46:39;;;;;;;22.73;17.27;;;;;;;;;;5014235;28;20614;-59
2020/12/21 07:49:05;;;;;;;20.80;15.60;;;;;;;;;;5012521;28;20610;-58
2020/12/21 07:51:30;;;;;;;23.13;16.30;;;;;;;;;;5023461;28;20698;-58
2020/12/21 07:53:59;;;;;;;22.87;17.73;;;;;;;;;;5009618;28;20189;-57
2020/12/21 07:56:24;;;;;;;21.20;15.67;;;;;;;;;;4997824;28;20209;-55
2020/12/21 07:58:50;;;;;;;23.17;17.33;;;;;;;;;;5012045;28;20661;-56
2020/12/21 08:01:20;;;;;;;22.43;17.00;;;;;;;;;;5001942;28;20185;-56
2020/12/21 08:03:45;;;;;;;25.20;17.50;;;;;;;;;;5011645;28;20217;-57
2020/12/21 08:06:12;;;;;;;27.08;18.08;;;;;;;;;;5003266;28;20636;-56
2020/12/21 08:08:37;;;;;;;23.40;18.50;;;;;;;;;;5012086;28;20203;-55
2020/12/21 08:11:03;;;;;;;24.53;18.30;;;;;;;;;;5010346;28;20593;-57
2020/12/21 08:13:28;;;;;;;22.53;17.30;;;;;;;;;;5009387;28;20261;-58
2020/12/21 08:16:03;;;;;;;24.57;18.20;;;;;;;;;;5006181;28;20282;-57
2020/12/21 08:18:28;;;;;;;22.67;16.17;;;;;;;;;;5012083;28;20575;-57
2020/12/21 08:20:54;;;;;;;24.20;18.30;;;;;;;;;;5010025;28;20597;-58
2020/12/21 08:23:29;;;;;;;22.33;17.40;;;;;;;;;;5016137;28;20180;-58
2020/12/21 08:25:55;;;;;;;23.07;17.27;;;;;;;;;;5003105;28;20223;-56
2020/12/21 08:29:06;;;;;;;26.73;19.00;;;;;;;;;;5016401;28;20610;-57
2020/12/21 08:31:14;;;;;;;23.90;17.40;;;;;;;;;;5001313;28;20726;-57
2020/12/21 08:33:43;;;;;;;22.87;17.50;;;;;;;;;;5010400;28;20698;-57
2020/12/21 08:36:16;;;;;;;22.80;18.13;;;;;;;;;;5014176;28;20682;-57
2020/12/21 08:38:41;;;;;;;22.90;17.70;;;;;;;;;;4999360;28;20605;-59
2020/12/21 08:41:06;;;;;;;25.20;19.02;;;;;;;;;;5003909;28;20694;-58
2020/12/21 08:43:31;;;;;;;23.57;18.60;;;;;;;;;;5000149;28;20214;-58
2020/12/21 08:45:57;;;;;;;27.33;19.85;;;;;;;;;;5009327;28;20185;-57
2020/12/21 08:48:22;;;;;;;27.70;20.33;;;;;;;;;;5013205;28;20184;-58
2020/12/21 08:50:47;;;;;;;26.38;18.85;;;;;;;;;;5004492;28;20336;-56
2020/12/21 08:53:12;;;;;;;32.25;20.65;;;;;;;;;;5010985;28;20187;-57
2020/12/21 08:55:37;;;;;;;27.60;19.67;;;;;;;;;;5013758;28;20579;-57
2020/12/21 08:58:09;;;;;;;27.77;19.67;;;;;;;;;;5012757;28;20219;-58
2020/12/21 09:00:34;;;;;;;28.90;19.83;;;;;;;;;;5008867;28;20235;-58
2020/12/21 09:02:59;;;;;;;30.17;21.08;;;;;;;;;;5010572;28;20627;-58
2020/12/21 09:05:24;;;;;;;27.48;20.73;;;;;;;;;;5013045;28;20667;-57
2020/12/21 09:07:50;;;;;;;30.00;21.75;;;;;;;;;;5004920;28;20184;-57
2020/12/21 09:10:15;;;;;;;31.58;23.48;;;;;;;;;;5004869;28;20247;-57
2020/12/21 09:12:40;;;;;;;31.35;21.02;;;;;;;;;;5023316;28;20593;-57
2020/12/21 09:15:05;;;;;;;28.45;19.95;;;;;;;;;;5002221;28;20214;-57
2020/12/21 09:17:30;;;;;;;32.17;21.30;;;;;;;;;;5012052;28;20188;-57
2020/12/21 09:19:55;;;;;;;26.70;19.17;;;;;;;;;;5016802;28;20618;-56
2020/12/21 09:22:20;;;;;;;26.52;19.27;;;;;;;;;;5010319;28;20180;-57
2020/12/21 09:24:48;;;;;;;30.77;20.63;;;;;;;;;;5007712;28;20185;-57
2020/12/21 09:27:14;;;;;;;32.17;21.60;;;;;;;;;;5001809;28;20222;-57
2020/12/21 09:29:39;;;;;;;33.83;23.35;;;;;;;;;;5009128;28;20593;-56
2020/12/21 09:32:04;;;;;;;27.60;19.92;;;;;;;;;;5009861;28;20709;-56
2020/12/21 09:34:29;;;;;;;27.10;19.35;;;;;;;;;;5014130;28;20177;-57
2020/12/21 09:36:54;;;;;;;26.95;19.88;;;;;;;;;;5014225;28;20212;-57
2020/12/21 09:39:20;;;;;;;33.27;21.47;;;;;;;;;;5016628;28;20655;-56
2020/12/21 09:41:45;;;;;;;29.47;20.37;;;;;;;;;;5016011;28;20173;-56
2020/12/21 09:44:10;;;;;;;31.17;21.57;;;;;;;;;;5015724;28;20187;-57
2020/12/21 09:46:35;;;;;;;29.40;22.17;;;;;;;;;;5016434;28;20260;-57
2020/12/21 09:49:03;;;;;;;28.93;20.53;;;;;;;;;;5003742;28;20675;-58
2020/12/21 09:51:29;;;;;;;29.03;21.07;;;;;;;;;;5015944;28;20600;-57
2020/12/21 09:53:54;;;;;;;24.80;19.53;;;;;;;;;;5023455;28;20741;-57
2020/12/21 09:56:19;;;;;;;29.45;20.27;;;;;;;;;;5010063;28;20391;-57
2020/12/21 09:58:45;;;;;;;27.10;19.40;;;;;;;;;;5005952;28;20285;-57
2020/12/21 10:01:10;;;;;;;27.70;19.77;;;;;;;;;;5017464;28;20185;-58
2020/12/21 10:03:39;;;;;;;25.50;18.40;;;;;;;;;;5006667;28;20654;-58
2020/12/21 10:06:06;;;;;;;24.37;18.27;;;;;;;;;;5013364;28;20294;-57
2020/12/21 10:08:32;;;;;;;24.63;18.60;;;;;;;;;;5017360;28;20598;-59
2020/12/21 10:10:57;;;;;;;26.70;19.98;;;;;;;;;;5005897;28;20621;-58
2020/12/21 10:13:22;;;;;;;25.90;20.20;;;;;;;;;;5009051;28;20204;-58
2020/12/21 10:15:47;;;;;;;24.65;17.85;;;;;;;;;;5001991;28;20192;-57
2020/12/21 10:18:12;;;;;;;24.30;18.15;;;;;;;;;;5003198;28;20175;-58
2020/12/21 10:20:37;;;;;;;27.27;19.38;;;;;;;;;;5020102;28;20238;-58
2020/12/21 10:23:02;;;;;;;23.13;18.27;;;;;;;;;;5016839;28;20166;-58
2020/12/21 10:25:28;;;;;;;25.42;18.58;;;;;;;;;;5016825;28;20255;-58
2020/12/21 10:27:53;;;;;;;29.10;20.23;;;;;;;;;;5009087;28;20640;-58
2020/12/21 10:30:18;;;;;;;24.95;19.38;;;;;;;;;;5012270;28;20542;-57
2020/12/21 10:32:43;;;;;;;23.43;18.40;;;;;;;;;;5012052;28;20174;-58
2020/12/21 10:35:09;;;;;;;23.23;17.07;;;;;;;;;;5019942;28;20304;-58
2020/12/21 10:37:35;;;;;;;27.77;18.33;;;;;;;;;;5001053;28;20595;-58
2020/12/21 10:40:00;;;;;;;25.60;19.40;;;;;;;;;;5000807;28;20667;-58
2020/12/21 10:42:25;;;;;;;24.90;18.42;;;;;;;;;;4996430;28;20252;-58
2020/12/21 10:44:50;;;;;;;24.02;18.38;;;;;;;;;;5013566;28;20535;-58
2020/12/21 10:47:15;;;;;;;26.40;18.70;;;;;;;;;;5009689;28;20173;-58
2020/12/21 10:49:40;;;;;;;25.10;17.52;;;;;;;;;;5008908;28;20193;-58
2020/12/21 10:52:05;;;;;;;26.80;18.77;;;;;;;;;;4997363;28;20561;-59
2020/12/21 10:54:31;;;;;;;24.73;18.33;;;;;;;;;;4994808;28;20184;-59
2020/12/21 10:56:56;;;;;;;24.15;18.63;;;;;;;;;;4998498;28;20217;-59
2020/12/21 10:59:21;;;;;;;25.77;17.87;;;;;;;;;;4999722;28;20178;-58
2020/12/21 11:01:46;;;;;;;26.55;18.52;;;;;;;;;;5004935;28;20740;-57
2020/12/21 11:04:12;;;;;;;22.90;17.93;;;;;;;;;;5018171;28;20877;-57
2020/12/21 11:06:37;;;;;;;26.10;19.40;;;;;;;;;;5009876;28;20180;-58
2020/12/21 11:09:02;;;;;;;25.25;19.10;;;;;;;;;;4997206;28;20182;-59
2020/12/21 11:11:28;;;;;;;26.50;19.20;;;;;;;;;;5013717;28;20180;-59
2020/12/21 11:13:56;;;;;;;22.13;18.10;;;;;;;;;;5009341;28;20747;-57
2020/12/21 11:16:22;;;;;;;26.07;19.37;;;;;;;;;;5004676;28;20208;-57
2020/12/21 11:18:47;;;;;;;23.33;17.87;;;;;;;;;;4997564;28;21117;-58
2020/12/21 11:21:13;;;;;;;24.53;19.90;;;;;;;;;;5018740;28;20593;-58
2020/12/21 11:23:38;;;;;;;24.60;18.70;;;;;;;;;;4998253;28;20193;-57
2020/12/21 11:26:04;;;;;;;26.03;19.10;;;;;;;;;;5002772;28;21252;-58
2020/12/21 11:28:29;;;;;;;25.70;19.75;;;;;;;;;;5015274;28;20169;-58
2020/12/21 11:30:54;;;;;;;25.15;19.67;;;;;;;;;;5016414;28;20543;-57
2020/12/21 11:33:19;;;;;;;29.35;20.52;;;;;;;;;;5011398;28;20173;-58
2020/12/21 11:35:44;;;;;;;25.67;19.05;;;;;;;;;;5005128;28;20189;-58
2020/12/21 11:38:09;;;;;;;28.93;21.03;;;;;;;;;;5005898;28;20208;-58
2020/12/21 11:40:35;;;;;;;29.10;20.00;;;;;;;;;;5004916;28;20388;-58
2020/12/21 11:43:00;;;;;;;31.30;20.67;;;;;;;;;;5018711;28;20180;-58
2020/12/21 11:45:25;;;;;;;28.17;20.60;;;;;;;;;;5012333;28;20177;-58
2020/12/21 11:47:50;;;;;;;29.25;19.48;;;;;;;;;;5006521;28;20259;-58
2020/12/21 11:50:16;;;;;;;27.20;19.38;;;;;;;;;;5011966;28;20188;-58
2020/12/21 11:52:41;;;;;;;28.23;19.77;;;;;;;;;;5016484;28;20180;-58
2020/12/21 11:55:07;;;;;;;29.27;22.83;;;;;;;;;;5007246;28;20205;-57
2020/12/21 11:57:32;;;;;;;28.27;21.00;;;;;;;;;;5015454;28;20173;-59
2020/12/21 11:59:57;;;;;;;29.00;21.13;;;;;;;;;;5014510;28;20177;-58
2020/12/21 12:02:22;;;;;;;28.55;21.27;;;;;;;;;;5000700;28;20170;-58
2020/12/21 12:04:48;;;;;;;29.38;20.63;;;;;;;;;;5008744;28;20237;-59
2020/12/21 12:07:15;;;;;;;27.70;20.00;;;;;;;;;;5015449;28;20269;-58
2020/12/21 12:09:41;;;;;;;26.53;19.87;;;;;;;;;;5004571;28;20600;-59
2020/12/21 12:12:06;;;;;;;28.00;20.13;;;;;;;;;;5008701;28;20618;-58
2020/12/21 12:14:31;;;;;;;27.40;20.10;;;;;;;;;;5019468;28;20168;-58
2020/12/21 12:16:57;;;;;;;35.50;21.95;;;;;;;;;;5008622;28;20672;-59
2020/12/21 12:19:22;;;;;;;29.93;20.30;;;;;;;;;;5009873;28;20800;-59
2020/12/21 12:21:48;;;;;;;29.73;19.67;;;;;;;;;;5015044;28;20647;-58
2020/12/21 12:24:13;;;;;;;30.07;20.33;;;;;;;;;;5016823;28;20570;-59
2020/12/21 12:26:38;;;;;;;29.13;19.70;;;;;;;;;;5019270;28;20217;-58
2020/12/21 12:29:03;;;;;;;26.27;18.90;;;;;;;;;;5015760;28;20222;-58
2020/12/21 12:31:29;;;;;;;25.45;18.98;;;;;;;;;;5016819;28;20187;-59
2020/12/21 12:33:54;;;;;;;26.00;19.43;;;;;;;;;;5017668;28;20640;-59
2020/12/21 12:36:20;;;;;;;27.25;17.75;;;;;;;;;;5008549;28;20249;-57
2020/12/21 12:38:45;;;;;;;24.33;17.10;;;;;;;;;;5003651;28;20171;-57
2020/12/21 12:41:10;;;;;;;31.80;20.40;;;;;;;;;;5017267;28;20602;-57
2020/12/21 12:43:36;;;;;;;29.10;19.50;;;;;;;;;;5021243;28;20180;-58
2020/12/21 12:46:05;;;;;;;28.90;19.80;;;;;;;;;;5012565;28;20584;-58
2020/12/21 12:48:30;;;;;;;24.40;17.80;;;;;;;;;;5013889;28;20188;-58
2020/12/21 12:50:55;;;;;;;23.77;16.97;;;;;;;;;;5007075;28;20611;-58
2020/12/21 12:53:20;;;;;;;26.17;17.50;;;;;;;;;;5004712;28;20177;-58
2020/12/21 12:55:45;;;;;;;25.55;19.40;;;;;;;;;;5016347;28;20201;-58
2020/12/21 12:58:10;;;;;;;25.38;18.50;;;;;;;;;;5014144;28;20628;-58
2020/12/21 13:00:36;;;;;;;24.02;17.80;;;;;;;;;;5016788;28;20195;-58
2020/12/21 13:03:01;;;;;;;28.23;18.42;;;;;;;;;;5016889;28;20192;-57
2020/12/21 13:05:26;;;;;;;24.30;17.83;;;;;;;;;;5017447;28;20737;-57
2020/12/21 13:07:51;;;;;;;23.53;18.17;;;;;;;;;;5016154;28;20177;-58
2020/12/21 13:10:16;;;;;;;25.90;18.00;;;;;;;;;;5017422;28;20594;-58
2020/12/21 13:12:41;;;;;;;22.80;17.20;;;;;;;;;;5021135;28;20234;-58
2020/12/21 13:15:07;;;;;;;24.60;18.20;;;;;;;;;;5009366;28;20193;-58
2020/12/21 13:17:32;;;;;;;22.13;15.73;;;;;;;;;;5014490;28;20529;-57
2020/12/21 13:19:57;;;;;;;24.73;16.27;;;;;;;;;;5003170;28;20178;-58
2020/12/21 13:22:24;;;;;;;23.07;16.00;;;;;;;;;;5017499;28;20169;-57
2020/12/21 13:24:49;;;;;;;21.93;17.40;;;;;;;;;;5017697;28;20204;-57
2020/12/21 13:27:14;;;;;;;23.67;17.00;;;;;;;;;;5003550;28;20713;-57
2020/12/21 13:29:40;;;;;;;20.67;15.50;;;;;;;;;;5009735;28;20173;-57
2020/12/21 13:32:05;;;;;;;21.65;16.25;;;;;;;;;;5008279;28;20251;-57
2020/12/21 13:34:30;;;;;;;22.45;16.35;;;;;;;;;;5015459;28;20601;-58
2020/12/21 13:36:55;;;;;;;21.73;15.48;;;;;;;;;;5009732;28;20212;-57
2020/12/21 13:39:20;;;;;;;21.93;15.80;;;;;;;;;;5009869;28;20172;-57
2020/12/21 13:41:45;;;;;;;21.63;15.23;;;;;;;;;;5010373;28;20182;-58
2020/12/21 13:44:11;;;;;;;22.50;16.50;;;;;;;;;;5008792;28;20176;-58
2020/12/21 13:46:38;;;;;;;20.57;15.27;;;;;;;;;;4999038;28;20208;-58
2020/12/21 13:49:04;;;;;;;18.77;15.03;;;;;;;;;;5002106;28;20189;-58
2020/12/21 13:51:29;;;;;;;20.80;15.00;;;;;;;;;;5009074;28;20987;-58
2020/12/21 13:53:54;;;;;;;21.40;15.80;;;;;;;;;;5000235;28;20252;-58
2020/12/21 13:56:19;;;;;;;29.10;16.57;;;;;;;;;;5006833;28;20624;-58
2020/12/21 13:58:44;;;;;;;17.70;13.55;;;;;;;;;;5006463;28;20172;-58
2020/12/21 14:01:09;;;;;;;20.70;15.27;;;;;;;;;;5011483;28;20169;-58
2020/12/21 14:03:35;;;;;;;18.80;14.23;;;;;;;;;;5009794;28;20173;-59
2020/12/21 14:06:00;;;;;;;21.13;14.75;;;;;;;;;;5010587;28;20825;-58
2020/12/21 14:08:25;;;;;;;24.15;16.13;;;;;;;;;;5011125;28;20210;-58